sensor_id;sensor_type;location;lat;lon;timestamp;temperature;humidity
18163;DHT22;9206;50.994;4.538;2022-10-26T00:00:51;12.40;99.90
18163;DHT22;9206;50.994;4.538;2022-10-26T00:03:45;12.40;99.90
18163;DHT22;9206;50.994;4.538;2022-10-26T00:06:33;12.40;99.90
18163;DHT22;9206;50.994;4.538;2022-10-26T00:09:27;12.40;99.90
18163;DHT22;9206;50.994;4.538;2022-10-26T00:12:15;12.40;99.90
18163;DHT22;9206;50.994;4.538;2022-10-26T00:15:06;12.40;99.90
18163;DHT22;9206;50.994;4.538;2022-10-26T00:17:59;12.40;99.90
18163;DHT22;9206;50.994;4.538;2022-10-26T00:20:50;12.40;99.90
18163;DHT22;9206;50.994;4.538;2022-10-26T00:23:44;12.40;99.90
18163;DHT22;9206;50.994;4.538;2022-10-26T00:26:34;12.40;99.90
18163;DHT22;9206;50.994;4.538;2022-10-26T00:29:24;12.40;99.90
18163;DHT22;9206;50.994;4.538;2022-10-26T00:32:11;12.30;99.90
18163;DHT22;9206;50.994;4.538;2022-10-26T00:34:59;12.40;99.90
18163;DHT22;9206;50.994;4.538;2022-10-26T00:37:47;12.40;99.90
18163;DHT22;9206;50.994;4.538;2022-10-26T00:40:52;12.40;99.90
18163;DHT22;9206;50.994;4.538;2022-10-26T00:43:47;12.40;99.90
18163;DHT22;9206;50.994;4.538;2022-10-26T00:46:40;12.40;99.90
18163;DHT22;9206;50.994;4.538;2022-10-26T00:49:29;12.40;99.90
18163;DHT22;9206;50.994;4.538;2022-10-26T00:52:18;12.50;99.90
18163;DHT22;9206;50.994;4.538;2022-10-26T00:55:07;12.50;99.90
18163;DHT22;9206;50.994;4.538;2022-10-26T00:57:55;12.50;99.90
18163;DHT22;9206;50.994;4.538;2022-10-26T01:00:50;12.50;99.90
18163;DHT22;9206;50.994;4.538;2022-10-26T01:03:38;12.50;99.90
18163;DHT22;9206;50.994;4.538;2022-10-26T01:06:28;12.60;99.90
18163;DHT22;9206;50.994;4.538;2022-10-26T01:09:24;12.60;99.90
18163;DHT22;9206;50.994;4.538;2022-10-26T01:12:15;12.60;99.90
18163;DHT22;9206;50.994;4.538;2022-10-26T01:15:07;12.70;99.90
18163;DHT22;9206;50.994;4.538;2022-10-26T01:18:09;12.70;99.90
18163;DHT22;9206;50.994;4.538;2022-10-26T01:27:53;12.80;99.90
18163;DHT22;9206;50.994;4.538;2022-10-26T01:30:46;12.80;99.90
18163;DHT22;9206;50.994;4.538;2022-10-26T01:33:43;12.80;99.90
18163;DHT22;9206;50.994;4.538;2022-10-26T01:36:44;12.80;99.90
18163;DHT22;9206;50.994;4.538;2022-10-26T01:39:38;12.80;99.90
18163;DHT22;9206;50.994;4.538;2022-10-26T01:42:34;12.70;99.90
18163;DHT22;9206;50.994;4.538;2022-10-26T01:45:33;12.70;99.90
18163;DHT22;9206;50.994;4.538;2022-10-26T01:48:24;12.70;99.90
18163;DHT22;9206;50.994;4.538;2022-10-26T01:51:17;12.80;99.90
18163;DHT22;9206;50.994;4.538;2022-10-26T01:54:08;12.70;99.90
18163;DHT22;9206;50.994;4.538;2022-10-26T01:57:02;12.70;99.90
18163;DHT22;9206;50.994;4.538;2022-10-26T02:00:03;12.70;99.90
18163;DHT22;9206;50.994;4.538;2022-10-26T02:03:07;12.70;99.90
18163;DHT22;9206;50.994;4.538;2022-10-26T02:06:11;12.70;99.90
18163;DHT22;9206;50.994;4.538;2022-10-26T02:09:15;12.70;99.90
18163;DHT22;9206;50.994;4.538;2022-10-26T02:12:12;12.70;99.90
18163;DHT22;9206;50.994;4.538;2022-10-26T02:15:06;12.70;99.90
18163;DHT22;9206;50.994;4.538;2022-10-26T02:18:06;12.70;99.90
18163;DHT22;9206;50.994;4.538;2022-10-26T02:21:02;12.60;99.90
18163;DHT22;9206;50.994;4.538;2022-10-26T02:23:57;12.70;99.90
18163;DHT22;9206;50.994;4.538;2022-10-26T02:26:47;12.60;99.90
18163;DHT22;9206;50.994;4.538;2022-10-26T02:29:39;12.60;99.90
18163;DHT22;9206;50.994;4.538;2022-10-26T02:32:35;12.60;99.90
18163;DHT22;9206;50.994;4.538;2022-10-26T02:35:31;12.60;99.90
18163;DHT22;9206;50.994;4.538;2022-10-26T02:38:22;12.60;99.90
18163;DHT22;9206;50.994;4.538;2022-10-26T02:41:13;12.60;99.90
18163;DHT22;9206;50.994;4.538;2022-10-26T02:44:06;12.60;99.90
18163;DHT22;9206;50.994;4.538;2022-10-26T02:47:00;12.70;99.90
18163;DHT22;9206;50.994;4.538;2022-10-26T02:49:51;12.60;99.90
18163;DHT22;9206;50.994;4.538;2022-10-26T02:52:51;12.60;99.90
18163;DHT22;9206;50.994;4.538;2022-10-26T02:55:47;12.70;99.90
18163;DHT22;9206;50.994;4.538;2022-10-26T02:58:47;12.70;99.90
18163;DHT22;9206;50.994;4.538;2022-10-26T03:01:38;12.70;99.90
18163;DHT22;9206;50.994;4.538;2022-10-26T03:04:32;12.70;99.90
18163;DHT22;9206;50.994;4.538;2022-10-26T03:07:26;12.70;99.90
18163;DHT22;9206;50.994;4.538;2022-10-26T03:10:16;12.80;99.90
18163;DHT22;9206;50.994;4.538;2022-10-26T03:13:04;12.70;99.90
18163;DHT22;9206;50.994;4.538;2022-10-26T03:16:05;12.80;99.90
18163;DHT22;9206;50.994;4.538;2022-10-26T03:18:59;12.80;99.90
18163;DHT22;9206;50.994;4.538;2022-10-26T03:21:52;12.80;99.90
18163;DHT22;9206;50.994;4.538;2022-10-26T03:24:48;12.80;99.90
18163;DHT22;9206;50.994;4.538;2022-10-26T03:27:42;12.80;99.90
18163;DHT22;9206;50.994;4.538;2022-10-26T03:30:34;12.80;99.90
18163;DHT22;9206;50.994;4.538;2022-10-26T03:33:26;12.80;99.90
18163;DHT22;9206;50.994;4.538;2022-10-26T03:36:19;12.80;99.90
18163;DHT22;9206;50.994;4.538;2022-10-26T03:39:08;12.80;99.90
18163;DHT22;9206;50.994;4.538;2022-10-26T03:41:57;12.80;99.90
18163;DHT22;9206;50.994;4.538;2022-10-26T03:44:44;12.80;99.90
18163;DHT22;9206;50.994;4.538;2022-10-26T03:47:43;12.80;99.90
18163;DHT22;9206;50.994;4.538;2022-10-26T03:50:38;12.90;99.90
18163;DHT22;9206;50.994;4.538;2022-10-26T03:53:29;12.90;99.90
18163;DHT22;9206;50.994;4.538;2022-10-26T03:56:18;12.90;99.90
18163;DHT22;9206;50.994;4.538;2022-10-26T03:59:09;12.90;99.90
18163;DHT22;9206;50.994;4.538;2022-10-26T04:02:07;12.90;99.90
18163;DHT22;9206;50.994;4.538;2022-10-26T04:04:58;12.90;99.90
18163;DHT22;9206;50.994;4.538;2022-10-26T04:07:53;12.80;99.90
18163;DHT22;9206;50.994;4.538;2022-10-26T04:10:41;12.80;99.90
18163;DHT22;9206;50.994;4.538;2022-10-26T04:13:32;12.80;99.90
18163;DHT22;9206;50.994;4.538;2022-10-26T04:16:23;12.80;99.90
18163;DHT22;9206;50.994;4.538;2022-10-26T04:19:14;12.70;99.90
18163;DHT22;9206;50.994;4.538;2022-10-26T04:22:01;12.70;99.90
18163;DHT22;9206;50.994;4.538;2022-10-26T04:24:53;12.70;99.90
18163;DHT22;9206;50.994;4.538;2022-10-26T04:27:44;12.70;99.90
18163;DHT22;9206;50.994;4.538;2022-10-26T04:30:35;12.80;99.90
18163;DHT22;9206;50.994;4.538;2022-10-26T04:33:24;12.80;99.90
18163;DHT22;9206;50.994;4.538;2022-10-26T04:36:15;12.80;99.90
18163;DHT22;9206;50.994;4.538;2022-10-26T04:39:02;12.80;99.90
18163;DHT22;9206;50.994;4.538;2022-10-26T04:41:57;12.80;99.90
18163;DHT22;9206;50.994;4.538;2022-10-26T04:44:45;12.80;99.90
18163;DHT22;9206;50.994;4.538;2022-10-26T04:47:32;12.80;99.90
18163;DHT22;9206;50.994;4.538;2022-10-26T04:50:25;12.70;99.90
18163;DHT22;9206;50.994;4.538;2022-10-26T04:53:15;12.80;99.90
18163;DHT22;9206;50.994;4.538;2022-10-26T04:56:19;12.80;99.90
18163;DHT22;9206;50.994;4.538;2022-10-26T04:59:11;12.80;99.90
18163;DHT22;9206;50.994;4.538;2022-10-26T05:02:04;12.80;99.90
18163;DHT22;9206;50.994;4.538;2022-10-26T05:04:57;12.80;99.90
18163;DHT22;9206;50.994;4.538;2022-10-26T05:07:53;12.80;99.90
18163;DHT22;9206;50.994;4.538;2022-10-26T05:10:40;12.70;99.90
18163;DHT22;9206;50.994;4.538;2022-10-26T05:13:31;12.80;99.90
18163;DHT22;9206;50.994;4.538;2022-10-26T05:16:26;12.80;99.90
18163;DHT22;9206;50.994;4.538;2022-10-26T05:19:14;12.90;99.90
18163;DHT22;9206;50.994;4.538;2022-10-26T05:22:05;12.90;99.90
18163;DHT22;9206;50.994;4.538;2022-10-26T05:24:57;13.10;99.90
18163;DHT22;9206;50.994;4.538;2022-10-26T05:27:47;13.30;99.90
18163;DHT22;9206;50.994;4.538;2022-10-26T05:30:45;13.40;99.90
18163;DHT22;9206;50.994;4.538;2022-10-26T05:33:49;13.50;99.90
18163;DHT22;9206;50.994;4.538;2022-10-26T05:36:40;13.70;99.90
18163;DHT22;9206;50.994;4.538;2022-10-26T05:39:27;13.80;99.90
18163;DHT22;9206;50.994;4.538;2022-10-26T05:42:18;14.00;99.90
18163;DHT22;9206;50.994;4.538;2022-10-26T05:45:08;14.20;99.90
18163;DHT22;9206;50.994;4.538;2022-10-26T05:47:59;14.30;99.90
18163;DHT22;9206;50.994;4.538;2022-10-26T05:50:48;14.40;99.90
18163;DHT22;9206;50.994;4.538;2022-10-26T05:53:42;14.40;99.90
18163;DHT22;9206;50.994;4.538;2022-10-26T05:56:41;14.50;99.90
18163;DHT22;9206;50.994;4.538;2022-10-26T05:59:35;14.50;99.90
18163;DHT22;9206;50.994;4.538;2022-10-26T06:02:29;14.40;99.90
18163;DHT22;9206;50.994;4.538;2022-10-26T06:05:26;14.40;99.90
18163;DHT22;9206;50.994;4.538;2022-10-26T06:08:17;14.40;99.90
18163;DHT22;9206;50.994;4.538;2022-10-26T06:11:05;14.30;99.90
18163;DHT22;9206;50.994;4.538;2022-10-26T06:14:05;14.30;99.90
18163;DHT22;9206;50.994;4.538;2022-10-26T06:17:10;14.20;99.90
18163;DHT22;9206;50.994;4.538;2022-10-26T06:20:16;14.20;99.90
18163;DHT22;9206;50.994;4.538;2022-10-26T06:23:36;14.20;99.90
18163;DHT22;9206;50.994;4.538;2022-10-26T06:26:33;14.20;99.90
18163;DHT22;9206;50.994;4.538;2022-10-26T06:29:46;14.20;99.90
18163;DHT22;9206;50.994;4.538;2022-10-26T06:32:50;14.20;99.90
18163;DHT22;9206;50.994;4.538;2022-10-26T06:40:02;14.30;99.90
18163;DHT22;9206;50.994;4.538;2022-10-26T06:44:15;14.60;99.90
18163;DHT22;9206;50.994;4.538;2022-10-26T06:54:35;14.60;99.90
18163;DHT22;9206;50.994;4.538;2022-10-26T06:58:14;14.60;99.90
18163;DHT22;9206;50.994;4.538;2022-10-26T07:01:07;14.70;99.90
18163;DHT22;9206;50.994;4.538;2022-10-26T07:04:16;14.70;99.90
18163;DHT22;9206;50.994;4.538;2022-10-26T07:07:11;14.80;99.90
18163;DHT22;9206;50.994;4.538;2022-10-26T07:10:04;14.80;99.90
18163;DHT22;9206;50.994;4.538;2022-10-26T07:12:52;14.80;99.90
18163;DHT22;9206;50.994;4.538;2022-10-26T07:15:46;14.90;99.90
18163;DHT22;9206;50.994;4.538;2022-10-26T07:18:34;14.90;99.90
18163;DHT22;9206;50.994;4.538;2022-10-26T07:21:48;15.00;99.90
18163;DHT22;9206;50.994;4.538;2022-10-26T07:31:06;15.20;99.90
18163;DHT22;9206;50.994;4.538;2022-10-26T07:34:12;15.20;99.90
18163;DHT22;9206;50.994;4.538;2022-10-26T07:37:24;15.20;99.90
18163;DHT22;9206;50.994;4.538;2022-10-26T07:40:14;15.30;99.90
18163;DHT22;9206;50.994;4.538;2022-10-26T07:43:02;15.30;99.90
18163;DHT22;9206;50.994;4.538;2022-10-26T07:46:05;15.40;99.90
18163;DHT22;9206;50.994;4.538;2022-10-26T07:48:53;15.50;99.90
18163;DHT22;9206;50.994;4.538;2022-10-26T07:51:46;15.60;99.90
18163;DHT22;9206;50.994;4.538;2022-10-26T07:54:36;15.70;99.90
18163;DHT22;9206;50.994;4.538;2022-10-26T07:57:34;15.70;99.90
18163;DHT22;9206;50.994;4.538;2022-10-26T08:00:21;15.80;99.90
18163;DHT22;9206;50.994;4.538;2022-10-26T08:03:41;15.90;99.90
18163;DHT22;9206;50.994;4.538;2022-10-26T08:33:08;20.40;99.90
18163;DHT22;9206;50.994;4.538;2022-10-26T08:36:10;22.00;99.90
18163;DHT22;9206;50.994;4.538;2022-10-26T08:46:06;24.20;99.90
18163;DHT22;9206;50.994;4.538;2022-10-26T08:49:03;24.50;99.90
18163;DHT22;9206;50.994;4.538;2022-10-26T08:52:00;25.40;99.90
18163;DHT22;9206;50.994;4.538;2022-10-26T08:54:51;26.00;99.90
18163;DHT22;9206;50.994;4.538;2022-10-26T08:57:43;26.60;99.90
18163;DHT22;9206;50.994;4.538;2022-10-26T09:00:49;27.20;99.90
18163;DHT22;9206;50.994;4.538;2022-10-26T09:03:36;27.70;99.90
18163;DHT22;9206;50.994;4.538;2022-10-26T09:06:58;28.20;99.90
18163;DHT22;9206;50.994;4.538;2022-10-26T09:11:16;28.70;99.90
18163;DHT22;9206;50.994;4.538;2022-10-26T09:13:49;28.50;99.90
18163;DHT22;9206;50.994;4.538;2022-10-26T09:16:48;27.80;99.90
18163;DHT22;9206;50.994;4.538;2022-10-26T09:20:09;28.00;99.90
18163;DHT22;9206;50.994;4.538;2022-10-26T09:23:21;28.10;99.90
18163;DHT22;9206;50.994;4.538;2022-10-26T09:26:38;28.50;99.90
18163;DHT22;9206;50.994;4.538;2022-10-26T09:29:56;28.70;99.90
18163;DHT22;9206;50.994;4.538;2022-10-26T09:32:47;27.80;99.90
18163;DHT22;9206;50.994;4.538;2022-10-26T09:35:42;26.80;99.90
18163;DHT22;9206;50.994;4.538;2022-10-26T09:38:34;26.70;99.90
18163;DHT22;9206;50.994;4.538;2022-10-26T09:41:26;27.40;99.90
18163;DHT22;9206;50.994;4.538;2022-10-26T09:44:25;28.80;99.90
18163;DHT22;9206;50.994;4.538;2022-10-26T09:47:25;27.50;99.90
18163;DHT22;9206;50.994;4.538;2022-10-26T09:50:19;28.60;99.90
18163;DHT22;9206;50.994;4.538;2022-10-26T09:53:14;29.40;99.90
18163;DHT22;9206;50.994;4.538;2022-10-26T09:56:06;30.30;99.90
18163;DHT22;9206;50.994;4.538;2022-10-26T09:59:28;31.40;99.90
18163;DHT22;9206;50.994;4.538;2022-10-26T10:02:37;31.40;99.90
18163;DHT22;9206;50.994;4.538;2022-10-26T10:05:32;31.70;99.90
18163;DHT22;9206;50.994;4.538;2022-10-26T10:08:26;32.00;99.90
18163;DHT22;9206;50.994;4.538;2022-10-26T10:11:18;32.70;99.90
18163;DHT22;9206;50.994;4.538;2022-10-26T10:14:07;33.80;99.90
18163;DHT22;9206;50.994;4.538;2022-10-26T10:17:01;33.00;99.90
18163;DHT22;9206;50.994;4.538;2022-10-26T10:19:49;32.90;99.90
18163;DHT22;9206;50.994;4.538;2022-10-26T10:22:55;32.90;99.90
18163;DHT22;9206;50.994;4.538;2022-10-26T10:25:43;32.70;99.90
18163;DHT22;9206;50.994;4.538;2022-10-26T10:28:34;32.10;99.90
18163;DHT22;9206;50.994;4.538;2022-10-26T10:31:27;31.40;99.90
18163;DHT22;9206;50.994;4.538;2022-10-26T10:34:21;32.00;99.90
18163;DHT22;9206;50.994;4.538;2022-10-26T10:37:22;31.90;99.90
18163;DHT22;9206;50.994;4.538;2022-10-26T10:40:16;31.80;99.90
18163;DHT22;9206;50.994;4.538;2022-10-26T10:43:11;31.70;99.90
18163;DHT22;9206;50.994;4.538;2022-10-26T10:46:00;32.30;99.90
18163;DHT22;9206;50.994;4.538;2022-10-26T10:48:52;33.20;99.90
18163;DHT22;9206;50.994;4.538;2022-10-26T10:51:40;33.60;99.90
18163;DHT22;9206;50.994;4.538;2022-10-26T10:54:33;32.40;99.90
18163;DHT22;9206;50.994;4.538;2022-10-26T10:57:26;31.60;99.90
18163;DHT22;9206;50.994;4.538;2022-10-26T11:00:17;31.80;99.90
18163;DHT22;9206;50.994;4.538;2022-10-26T11:06:34;32.70;99.90
18163;DHT22;9206;50.994;4.538;2022-10-26T11:09:26;31.30;99.90
18163;DHT22;9206;50.994;4.538;2022-10-26T11:12:23;31.70;99.90
18163;DHT22;9206;50.994;4.538;2022-10-26T11:15:19;32.40;99.90
18163;DHT22;9206;50.994;4.538;2022-10-26T11:18:13;31.20;99.90
18163;DHT22;9206;50.994;4.538;2022-10-26T11:21:21;30.90;99.90
18163;DHT22;9206;50.994;4.538;2022-10-26T11:24:14;30.50;99.90
18163;DHT22;9206;50.994;4.538;2022-10-26T11:27:14;30.40;99.90
18163;DHT22;9206;50.994;4.538;2022-10-26T11:30:05;30.40;99.90
18163;DHT22;9206;50.994;4.538;2022-10-26T11:32:59;31.10;99.90
18163;DHT22;9206;50.994;4.538;2022-10-26T11:36:03;31.40;99.90
18163;DHT22;9206;50.994;4.538;2022-10-26T11:39:07;31.40;99.90
18163;DHT22;9206;50.994;4.538;2022-10-26T11:42:02;31.50;99.90
18163;DHT22;9206;50.994;4.538;2022-10-26T11:45:02;32.00;99.90
18163;DHT22;9206;50.994;4.538;2022-10-26T11:48:11;32.40;99.90
18163;DHT22;9206;50.994;4.538;2022-10-26T11:51:15;31.70;99.90
18163;DHT22;9206;50.994;4.538;2022-10-26T11:54:14;31.30;99.90
18163;DHT22;9206;50.994;4.538;2022-10-26T11:57:05;31.90;99.90
18163;DHT22;9206;50.994;4.538;2022-10-26T12:00:01;33.30;99.90
18163;DHT22;9206;50.994;4.538;2022-10-26T12:02:54;33.50;99.90
18163;DHT22;9206;50.994;4.538;2022-10-26T12:05:48;33.50;99.90
18163;DHT22;9206;50.994;4.538;2022-10-26T12:08:41;32.00;99.90
18163;DHT22;9206;50.994;4.538;2022-10-26T12:11:42;31.90;99.90
18163;DHT22;9206;50.994;4.538;2022-10-26T12:14:43;31.40;99.90
18163;DHT22;9206;50.994;4.538;2022-10-26T12:17:35;31.60;99.90
18163;DHT22;9206;50.994;4.538;2022-10-26T12:23:56;31.50;99.90
18163;DHT22;9206;50.994;4.538;2022-10-26T12:26:55;32.70;99.90
18163;DHT22;9206;50.994;4.538;2022-10-26T12:29:50;33.20;99.90
18163;DHT22;9206;50.994;4.538;2022-10-26T12:32:59;31.80;99.90
18163;DHT22;9206;50.994;4.538;2022-10-26T12:35:54;30.70;99.90
18163;DHT22;9206;50.994;4.538;2022-10-26T12:39:02;30.90;99.90
18163;DHT22;9206;50.994;4.538;2022-10-26T12:41:55;30.70;99.90
18163;DHT22;9206;50.994;4.538;2022-10-26T12:45:13;30.80;99.90
18163;DHT22;9206;50.994;4.538;2022-10-26T12:48:20;31.40;99.90
18163;DHT22;9206;50.994;4.538;2022-10-26T12:51:42;31.70;99.90
18163;DHT22;9206;50.994;4.538;2022-10-26T12:54:37;30.90;99.90
18163;DHT22;9206;50.994;4.538;2022-10-26T12:57:32;30.30;99.90
18163;DHT22;9206;50.994;4.538;2022-10-26T13:00:31;30.60;99.90
18163;DHT22;9206;50.994;4.538;2022-10-26T13:03:31;31.10;99.90
18163;DHT22;9206;50.994;4.538;2022-10-26T13:06:44;30.60;99.90
18163;DHT22;9206;50.994;4.538;2022-10-26T13:09:36;30.40;99.90
18163;DHT22;9206;50.994;4.538;2022-10-26T13:12:37;30.20;99.90
18163;DHT22;9206;50.994;4.538;2022-10-26T13:15:28;30.20;99.90
18163;DHT22;9206;50.994;4.538;2022-10-26T13:18:19;29.70;99.90
18163;DHT22;9206;50.994;4.538;2022-10-26T13:21:12;30.00;99.90
18163;DHT22;9206;50.994;4.538;2022-10-26T13:24:13;30.00;99.90
18163;DHT22;9206;50.994;4.538;2022-10-26T13:27:39;30.20;99.90
18163;DHT22;9206;50.994;4.538;2022-10-26T13:30:43;29.70;99.90
18163;DHT22;9206;50.994;4.538;2022-10-26T13:33:36;29.70;99.90
18163;DHT22;9206;50.994;4.538;2022-10-26T13:36:30;29.70;99.90
18163;DHT22;9206;50.994;4.538;2022-10-26T13:39:21;29.30;99.90
18163;DHT22;9206;50.994;4.538;2022-10-26T13:42:13;28.50;99.90
18163;DHT22;9206;50.994;4.538;2022-10-26T13:45:05;28.50;99.90
18163;DHT22;9206;50.994;4.538;2022-10-26T13:48:04;29.30;99.90
18163;DHT22;9206;50.994;4.538;2022-10-26T13:50:55;28.60;99.90
18163;DHT22;9206;50.994;4.538;2022-10-26T13:54:20;27.70;99.90
18163;DHT22;9206;50.994;4.538;2022-10-26T13:57:18;27.20;99.90
18163;DHT22;9206;50.994;4.538;2022-10-26T14:00:16;27.90;99.90
18163;DHT22;9206;50.994;4.538;2022-10-26T14:03:17;28.30;99.90
18163;DHT22;9206;50.994;4.538;2022-10-26T14:06:11;27.90;99.90
18163;DHT22;9206;50.994;4.538;2022-10-26T14:09:12;27.50;99.90
18163;DHT22;9206;50.994;4.538;2022-10-26T14:12:02;27.10;99.90
18163;DHT22;9206;50.994;4.538;2022-10-26T14:14:50;27.10;99.90
18163;DHT22;9206;50.994;4.538;2022-10-26T14:17:42;27.30;99.90
18163;DHT22;9206;50.994;4.538;2022-10-26T14:20:31;27.40;99.90
18163;DHT22;9206;50.994;4.538;2022-10-26T14:23:33;27.20;99.90
18163;DHT22;9206;50.994;4.538;2022-10-26T14:26:28;26.00;99.90
18163;DHT22;9206;50.994;4.538;2022-10-26T14:29:20;24.90;99.90
18163;DHT22;9206;50.994;4.538;2022-10-26T14:32:24;24.20;99.90
18163;DHT22;9206;50.994;4.538;2022-10-26T14:35:14;23.50;99.90
18163;DHT22;9206;50.994;4.538;2022-10-26T14:38:05;22.90;99.90
18163;DHT22;9206;50.994;4.538;2022-10-26T14:41:07;22.50;99.90
18163;DHT22;9206;50.994;4.538;2022-10-26T14:44:00;22.20;99.90
18163;DHT22;9206;50.994;4.538;2022-10-26T14:46:51;22.00;99.90
18163;DHT22;9206;50.994;4.538;2022-10-26T14:49:47;22.00;99.90
18163;DHT22;9206;50.994;4.538;2022-10-26T14:52:37;21.90;99.90
18163;DHT22;9206;50.994;4.538;2022-10-26T14:55:25;21.90;99.90
18163;DHT22;9206;50.994;4.538;2022-10-26T14:58:19;22.40;99.90
18163;DHT22;9206;50.994;4.538;2022-10-26T15:01:31;23.80;99.90
18163;DHT22;9206;50.994;4.538;2022-10-26T15:04:34;24.20;99.90
18163;DHT22;9206;50.994;4.538;2022-10-26T15:07:34;25.20;99.90
18163;DHT22;9206;50.994;4.538;2022-10-26T15:10:44;26.10;99.90
18163;DHT22;9206;50.994;4.538;2022-10-26T15:13:40;27.20;99.90
18163;DHT22;9206;50.994;4.538;2022-10-26T15:16:37;27.50;99.90
18163;DHT22;9206;50.994;4.538;2022-10-26T15:19:27;27.40;99.90
18163;DHT22;9206;50.994;4.538;2022-10-26T15:22:22;26.90;99.90
18163;DHT22;9206;50.994;4.538;2022-10-26T15:25:17;25.90;99.90
18163;DHT22;9206;50.994;4.538;2022-10-26T15:28:10;25.30;99.90
18163;DHT22;9206;50.994;4.538;2022-10-26T15:31:27;24.70;99.90
18163;DHT22;9206;50.994;4.538;2022-10-26T15:34:15;23.70;99.90
18163;DHT22;9206;50.994;4.538;2022-10-26T15:37:08;23.10;99.90
18163;DHT22;9206;50.994;4.538;2022-10-26T15:40:04;22.50;99.90
18163;DHT22;9206;50.994;4.538;2022-10-26T15:42:55;22.20;99.90
18163;DHT22;9206;50.994;4.538;2022-10-26T15:45:50;21.80;99.90
18163;DHT22;9206;50.994;4.538;2022-10-26T15:48:40;21.60;99.90
18163;DHT22;9206;50.994;4.538;2022-10-26T15:51:34;21.40;99.90
18163;DHT22;9206;50.994;4.538;2022-10-26T15:54:28;21.20;99.90
18163;DHT22;9206;50.994;4.538;2022-10-26T15:57:22;21.10;99.90
18163;DHT22;9206;50.994;4.538;2022-10-26T16:00:15;20.90;99.90
18163;DHT22;9206;50.994;4.538;2022-10-26T16:03:11;20.70;99.90
18163;DHT22;9206;50.994;4.538;2022-10-26T16:06:04;20.60;99.90
18163;DHT22;9206;50.994;4.538;2022-10-26T16:09:08;20.50;99.90
18163;DHT22;9206;50.994;4.538;2022-10-26T16:15:33;20.20;99.90
18163;DHT22;9206;50.994;4.538;2022-10-26T16:18:34;20.10;99.90
18163;DHT22;9206;50.994;4.538;2022-10-26T16:22:11;20.00;99.90
18163;DHT22;9206;50.994;4.538;2022-10-26T16:25:16;19.90;99.90
18163;DHT22;9206;50.994;4.538;2022-10-26T16:28:04;19.90;99.90
18163;DHT22;9206;50.994;4.538;2022-10-26T16:30:59;19.70;99.90
18163;DHT22;9206;50.994;4.538;2022-10-26T16:33:46;19.60;99.90
18163;DHT22;9206;50.994;4.538;2022-10-26T16:36:40;19.50;99.90
18163;DHT22;9206;50.994;4.538;2022-10-26T16:39:33;19.40;99.90
18163;DHT22;9206;50.994;4.538;2022-10-26T16:42:23;19.40;99.90
18163;DHT22;9206;50.994;4.538;2022-10-26T16:45:18;19.30;99.90
18163;DHT22;9206;50.994;4.538;2022-10-26T16:48:10;19.20;99.90
18163;DHT22;9206;50.994;4.538;2022-10-26T16:51:06;19.20;99.90
18163;DHT22;9206;50.994;4.538;2022-10-26T16:54:03;19.10;99.90
18163;DHT22;9206;50.994;4.538;2022-10-26T16:56:54;19.10;99.90
18163;DHT22;9206;50.994;4.538;2022-10-26T16:59:43;18.90;99.90
18163;DHT22;9206;50.994;4.538;2022-10-26T17:02:41;19.00;99.90
18163;DHT22;9206;50.994;4.538;2022-10-26T17:05:36;18.90;99.90
18163;DHT22;9206;50.994;4.538;2022-10-26T17:08:30;18.80;99.90
18163;DHT22;9206;50.994;4.538;2022-10-26T17:11:19;18.80;99.90
18163;DHT22;9206;50.994;4.538;2022-10-26T17:14:10;18.70;99.90
18163;DHT22;9206;50.994;4.538;2022-10-26T17:17:03;18.70;99.90
18163;DHT22;9206;50.994;4.538;2022-10-26T17:19:50;18.60;99.90
18163;DHT22;9206;50.994;4.538;2022-10-26T17:22:40;18.60;99.90
18163;DHT22;9206;50.994;4.538;2022-10-26T17:25:34;18.50;99.90
18163;DHT22;9206;50.994;4.538;2022-10-26T17:28:26;18.50;99.90
18163;DHT22;9206;50.994;4.538;2022-10-26T17:31:16;18.50;99.90
18163;DHT22;9206;50.994;4.538;2022-10-26T17:34:04;18.50;99.90
18163;DHT22;9206;50.994;4.538;2022-10-26T17:36:53;18.50;99.90
18163;DHT22;9206;50.994;4.538;2022-10-26T17:39:45;18.40;99.90
18163;DHT22;9206;50.994;4.538;2022-10-26T17:42:35;18.40;99.90
18163;DHT22;9206;50.994;4.538;2022-10-26T17:45:23;18.40;99.90
18163;DHT22;9206;50.994;4.538;2022-10-26T17:48:14;18.50;99.90
18163;DHT22;9206;50.994;4.538;2022-10-26T17:51:03;18.50;99.90
18163;DHT22;9206;50.994;4.538;2022-10-26T17:54:00;18.50;99.90
18163;DHT22;9206;50.994;4.538;2022-10-26T17:56:52;18.40;99.90
18163;DHT22;9206;50.994;4.538;2022-10-26T17:59:40;18.40;99.90
18163;DHT22;9206;50.994;4.538;2022-10-26T18:02:30;18.40;99.90
18163;DHT22;9206;50.994;4.538;2022-10-26T18:05:22;18.40;99.90
18163;DHT22;9206;50.994;4.538;2022-10-26T18:08:11;18.40;99.90
18163;DHT22;9206;50.994;4.538;2022-10-26T18:11:02;18.30;99.90
18163;DHT22;9206;50.994;4.538;2022-10-26T18:13:57;18.30;99.90
18163;DHT22;9206;50.994;4.538;2022-10-26T18:17:06;18.20;99.90
18163;DHT22;9206;50.994;4.538;2022-10-26T18:20:00;18.10;99.90
18163;DHT22;9206;50.994;4.538;2022-10-26T18:22:49;18.00;99.90
18163;DHT22;9206;50.994;4.538;2022-10-26T18:25:40;17.90;99.90
18163;DHT22;9206;50.994;4.538;2022-10-26T18:28:27;17.70;99.90
18163;DHT22;9206;50.994;4.538;2022-10-26T18:31:19;17.60;99.90
18163;DHT22;9206;50.994;4.538;2022-10-26T18:34:09;17.50;99.90
18163;DHT22;9206;50.994;4.538;2022-10-26T18:36:56;17.30;99.90
18163;DHT22;9206;50.994;4.538;2022-10-26T18:39:46;17.20;99.90
18163;DHT22;9206;50.994;4.538;2022-10-26T18:42:33;17.20;99.90
18163;DHT22;9206;50.994;4.538;2022-10-26T18:45:21;17.10;99.90
18163;DHT22;9206;50.994;4.538;2022-10-26T18:48:09;17.00;99.90
18163;DHT22;9206;50.994;4.538;2022-10-26T18:51:01;16.90;99.90
18163;DHT22;9206;50.994;4.538;2022-10-26T18:53:52;16.80;99.90
18163;DHT22;9206;50.994;4.538;2022-10-26T18:56:42;16.60;99.90
18163;DHT22;9206;50.994;4.538;2022-10-26T18:59:48;16.50;99.90
18163;DHT22;9206;50.994;4.538;2022-10-26T19:02:47;16.40;99.90
18163;DHT22;9206;50.994;4.538;2022-10-26T19:05:37;16.30;99.90
18163;DHT22;9206;50.994;4.538;2022-10-26T19:08:27;16.30;99.90
18163;DHT22;9206;50.994;4.538;2022-10-26T19:11:22;16.20;99.90
18163;DHT22;9206;50.994;4.538;2022-10-26T19:14:10;16.10;99.90
18163;DHT22;9206;50.994;4.538;2022-10-26T19:17:04;16.00;99.90
18163;DHT22;9206;50.994;4.538;2022-10-26T19:19:55;15.90;99.90
18163;DHT22;9206;50.994;4.538;2022-10-26T19:22:51;15.90;99.90
18163;DHT22;9206;50.994;4.538;2022-10-26T19:25:44;15.80;99.90
18163;DHT22;9206;50.994;4.538;2022-10-26T19:28:32;15.80;99.90
18163;DHT22;9206;50.994;4.538;2022-10-26T19:31:26;15.70;99.90
18163;DHT22;9206;50.994;4.538;2022-10-26T19:34:15;15.60;99.90
18163;DHT22;9206;50.994;4.538;2022-10-26T19:37:06;15.60;99.90
18163;DHT22;9206;50.994;4.538;2022-10-26T19:39:58;15.50;99.90
18163;DHT22;9206;50.994;4.538;2022-10-26T19:42:52;15.50;99.90
18163;DHT22;9206;50.994;4.538;2022-10-26T19:45:39;15.50;99.90
18163;DHT22;9206;50.994;4.538;2022-10-26T19:48:27;15.50;99.90
18163;DHT22;9206;50.994;4.538;2022-10-26T19:51:14;15.40;99.90
18163;DHT22;9206;50.994;4.538;2022-10-26T19:54:03;15.30;99.90